createdAt,value
2019-03-26T09:30:50.795Z,101044.01
2019-03-26T09:31:57.817Z,101045.88
2019-03-26T09:33:05.240Z,101046.36
2019-03-26T09:34:14.536Z,101041.61
2019-03-26T09:36:00.176Z,101040.34
2019-03-26T09:37:33.073Z,101048.15
2019-03-26T09:38:39.787Z,101052.09
2019-03-26T09:39:48.448Z,101046.08
2019-03-26T09:40:54.633Z,101039.93
2019-03-26T09:42:00.900Z,101048.30
2019-03-26T09:43:07.311Z,101037.36
2019-03-26T09:44:15.896Z,101035.30
2019-03-26T09:45:53.412Z,101038.22
2019-03-26T09:47:00.786Z,101026.30
2019-03-26T09:48:47.409Z,101028.88
2019-03-26T09:50:29.258Z,101018.04
2019-03-26T09:52:00.162Z,101013.34
2019-03-26T09:53:45.803Z,101020.50
2019-03-26T09:57:26.630Z,101007.06
2019-03-26T09:58:33.217Z,101012.31
2019-03-26T10:00:12.338Z,101019.89
2019-03-26T10:01:20.459Z,101018.25
2019-03-26T10:02:26.162Z,101018.25
2019-03-26T10:03:32.501Z,101028.62
2019-03-26T10:04:57.774Z,101030.83
2019-03-26T10:06:47.872Z,101021.70
2019-03-26T10:08:33.200Z,101017.09
2019-03-26T10:10:20.370Z,101017.73
2019-03-26T10:12:07.034Z,101014.27
2019-03-26T10:13:55.143Z,101016.15
2019-03-26T10:15:43.125Z,101017.89
2019-03-26T10:17:32.659Z,101020.83
2019-03-26T10:19:20.587Z,101015.48
2019-03-26T10:21:06.872Z,101014.50
2019-03-26T10:22:54.095Z,101015.55
2019-03-26T10:24:00.489Z,101011.53
2019-03-26T10:25:11.344Z,101015.49
2019-03-26T10:26:18.530Z,101010.35
2019-03-26T10:27:42.464Z,101011.11
2019-03-26T10:28:48.891Z,101006.92
2019-03-26T10:30:14.618Z,101008.69
2019-03-26T10:31:21.954Z,101016.59
2019-03-26T10:32:29.580Z,101019.22
2019-03-26T10:33:46.988Z,101017.06
2019-03-26T10:35:35.535Z,101010.22
2019-03-26T10:36:41.825Z,101009.48
2019-03-26T10:37:48.869Z,101020.22
2019-03-26T10:39:05.166Z,101016.89
2019-03-26T10:40:40.683Z,101021.08
2019-03-26T10:42:23.290Z,101017.33
2019-03-26T10:44:10.665Z,101014.17
2019-03-26T10:45:58.415Z,100998.17
2019-03-26T10:47:46.466Z,101016.02
2019-03-26T10:49:32.071Z,100997.81
2019-03-26T10:51:18.795Z,100994.27
2019-03-26T10:52:34.244Z,100989.20
2019-03-26T10:53:42.553Z,100996.53
2019-03-26T10:54:48.307Z,100992.89
2019-03-26T10:56:33.980Z,100996.16
2019-03-26T10:57:46.904Z,101003.84
2019-03-26T10:58:52.787Z,101009.84
2019-03-26T11:00:07.989Z,100999.16
2019-03-26T11:01:14.519Z,101001.71
2019-03-26T11:02:53.901Z,100994.67
2019-03-26T11:04:37.849Z,100997.77
2019-03-26T11:06:23.486Z,100998.67
2019-03-26T11:08:11.617Z,100989.50
2019-03-26T11:09:59.905Z,100994.05
2019-03-26T11:11:46.387Z,100991.02
2019-03-26T11:13:35.011Z,100994.55
2019-03-26T11:15:24.731Z,100980.69
2019-03-26T11:17:13.281Z,100969.50
2019-03-26T11:18:58.775Z,100962.93
2019-03-26T11:20:47.241Z,100964.30
2019-03-26T11:22:33.271Z,100959.80
2019-03-26T11:24:20.091Z,100962.30
2019-03-26T11:26:03.563Z,100959.55
2019-03-26T11:27:30.626Z,100956.47
2019-03-26T11:28:37.263Z,100952.81
2019-03-26T11:29:46.159Z,100952.89
2019-03-26T11:30:51.897Z,100953.83
2019-03-26T11:31:58.326Z,100939.41
2019-03-26T11:33:04.949Z,100943.91
2019-03-26T11:34:11.989Z,100947.86
2019-03-26T11:35:19.659Z,100954.39
2019-03-26T11:36:25.409Z,100950.50
2019-03-26T11:37:31.475Z,100946.03
2019-03-26T11:39:09.567Z,100950.77
2019-03-26T11:40:55.143Z,100945.84
2019-03-26T11:42:41.135Z,100944.48
2019-03-26T11:44:27.923Z,100947.34
2019-03-26T11:46:15.599Z,100950.92
2019-03-26T11:48:02.462Z,100933.18
2019-03-26T11:49:49.463Z,100929.22
2019-03-26T11:51:36.015Z,100931.09
2019-03-26T11:53:24.137Z,100931.34
2019-03-26T11:54:30.581Z,100934.28
2019-03-26T11:56:12.545Z,100940.14
2019-03-26T11:57:18.300Z,100927.31
2019-03-26T11:58:45.516Z,100936.30
2019-03-26T11:59:51.899Z,100940.07
2019-03-26T12:01:31.363Z,100936.08
2019-03-26T12:02:37.691Z,100942.56
2019-03-26T12:04:01.830Z,100945.94
2019-03-26T12:05:31.586Z,100949.88
2019-03-26T12:07:19.925Z,100952.95
2019-03-26T12:09:07.491Z,100954.77
2019-03-26T12:59:11.547Z,100987.34
2019-03-26T13:00:26.585Z,100995.75
2019-03-26T13:01:32.363Z,100994.90
2019-03-26T13:02:40.107Z,100994.01
2019-03-26T13:03:46.231Z,101000.11
2019-03-26T13:04:53.707Z,101000.59
2019-03-26T13:06:01.122Z,101000.17
2019-03-26T13:07:08.177Z,100992.33
2019-03-26T13:08:14.097Z,100992.80
2019-03-26T13:09:19.979Z,100996.34
2019-03-26T13:10:26.074Z,101000.75
2019-03-26T13:11:34.049Z,100997.70
2019-03-26T13:12:40.096Z,101002.44
2019-03-26T13:13:46.256Z,101000.70
2019-03-26T13:14:52.254Z,101003.37
2019-03-26T13:16:00.130Z,101006.48
2019-03-26T13:17:06.553Z,101003.44
2019-03-26T13:18:13.880Z,101006.07
2019-03-26T13:19:20.002Z,101006.59
2019-03-26T13:20:25.953Z,101007.02
2019-03-26T13:21:33.729Z,101007.13
2019-03-26T13:22:40.091Z,101005.96
2019-03-26T13:23:46.782Z,101008.74
2019-03-26T13:24:53.000Z,101007.95
2019-03-26T13:25:59.255Z,101011.59
2019-03-26T13:27:06.628Z,101008.21
2019-03-26T13:28:12.618Z,101004.32
2019-03-26T13:29:18.971Z,101005.73
2019-03-26T13:30:25.313Z,101006.73
2019-03-26T13:31:31.339Z,101014.73
2019-03-26T13:32:37.399Z,101008.73
2019-03-26T13:33:43.559Z,101011.92
2019-03-26T13:34:49.821Z,100999.77
2019-03-26T13:35:56.861Z,101011.66
2019-03-26T13:37:02.822Z,101010.91
2019-03-26T13:38:08.959Z,101005.78
2019-03-26T13:39:15.207Z,101005.41
2019-03-26T13:40:27.089Z,101004.56
2019-03-26T13:41:29.879Z,101002.02
2019-03-26T13:42:37.994Z,101000.75
2019-03-26T13:43:44.351Z,101002.63
2019-03-26T13:44:50.584Z,101010.20
2019-03-26T13:45:56.716Z,101005.48
2019-03-26T13:47:02.969Z,101008.16
2019-03-26T13:48:09.070Z,100999.84
2019-03-26T13:49:15.195Z,101010.28
2019-03-26T13:50:21.473Z,101019.03
2019-03-26T13:51:27.411Z,101025.11
2019-03-26T13:52:33.671Z,101018.52
2019-03-26T13:53:39.930Z,101010.11
2019-03-26T13:54:45.990Z,101025.91
2019-03-26T13:55:52.524Z,101010.53
2019-03-26T13:56:58.573Z,101010.58
2019-03-26T13:58:04.958Z,101008.41
2019-03-26T13:59:11.063Z,101013.25
2019-03-26T14:00:20.397Z,101024.20
2019-03-26T14:01:26.761Z,101025.86
2019-03-26T14:02:32.906Z,101032.39
2019-03-26T14:03:38.892Z,101032.81
2019-03-26T14:04:45.046Z,101041.61
2019-03-26T14:05:51.121Z,101041.98
2019-03-26T14:06:57.125Z,101044.58
2019-03-26T14:08:03.518Z,101047.64
2019-03-26T14:09:10.206Z,101050.64
2019-03-26T14:10:16.526Z,101056.28
2019-03-26T14:11:22.722Z,101049.64
2019-03-26T14:12:28.645Z,101047.81
2019-03-26T14:13:35.006Z,101056.94
2019-03-26T14:14:41.252Z,101055.19
2019-03-26T14:15:47.395Z,101055.19
2019-03-26T14:16:53.795Z,101053.87
2019-03-26T14:18:00.319Z,101068.30
2019-03-26T14:19:06.575Z,101057.73
2019-03-26T14:20:12.739Z,101067.72
2019-03-26T14:21:18.792Z,101076.41
2019-03-26T14:22:25.960Z,101085.95
2019-03-26T14:23:31.950Z,101069.30
2019-03-26T14:24:37.821Z,101090.80
2019-03-26T14:25:43.901Z,101089.90
2019-03-26T14:26:50.245Z,101099.46
2019-03-26T14:27:56.487Z,101097.89
2019-03-26T14:29:02.812Z,101101.37
2019-03-26T14:30:11.630Z,101113.21
2019-03-26T14:31:17.731Z,101106.34
2019-03-26T14:32:24.005Z,101116.59
2019-03-26T14:33:30.255Z,101111.59
2019-03-26T14:34:36.567Z,101118.81
2019-03-26T14:35:44.144Z,101108.17
2019-03-26T14:36:50.464Z,101121.17
2019-03-26T14:37:56.569Z,101118.84
2019-03-26T14:39:02.750Z,101107.73
2019-03-26T14:40:09.853Z,101114.23
2019-03-26T14:41:18.059Z,101118.94
2019-03-26T14:42:24.158Z,101114.58
2019-03-26T14:43:30.439Z,101111.42
2019-03-26T14:44:36.821Z,101109.63
2019-03-26T14:45:43.171Z,101112.26
2019-03-26T14:46:50.699Z,101124.97
2019-03-26T14:47:56.979Z,101121.03
2019-03-26T14:49:03.443Z,101130.23
2019-03-26T14:50:09.749Z,101124.97
2019-03-26T14:51:15.995Z,101131.67
2019-03-26T14:52:22.188Z,101123.92
2019-03-26T14:53:28.532Z,101134.08
2019-03-26T14:54:34.893Z,101139.44
2019-03-26T14:55:42.201Z,101143.93
2019-03-26T14:56:48.465Z,101142.29
2019-03-26T14:57:54.669Z,101141.45
2019-03-26T14:59:00.869Z,101132.72
2019-03-26T15:00:11.236Z,101135.89
2019-03-26T15:01:18.617Z,101144.80
2019-03-26T15:02:24.877Z,101144.87
2019-03-26T15:03:30.818Z,101144.09
2019-03-26T15:04:37.000Z,101142.02
2019-03-26T15:05:47.097Z,101135.55
2019-03-26T15:06:53.485Z,101134.25
2019-03-26T15:07:59.789Z,101139.13
2019-03-26T15:09:08.401Z,101135.66
2019-03-26T15:10:15.897Z,101135.73
2019-03-26T15:11:23.757Z,101140.27
2019-03-26T15:12:30.103Z,101141.59
2019-03-26T15:13:36.343Z,101147.38
2019-03-26T15:14:42.665Z,101157.48
2019-03-26T15:15:50.315Z,101138.61
2019-03-26T15:16:56.827Z,101144.91
2019-03-26T15:18:03.420Z,101145.10
2019-03-26T15:19:09.986Z,101150.53
2019-03-26T15:20:16.383Z,101143.59
2019-03-26T15:21:23.712Z,101147.23
2019-03-26T15:22:31.245Z,101155.59
2019-03-26T15:23:37.636Z,101146.03
2019-03-26T15:24:46.104Z,101150.33
2019-03-26T15:25:54.345Z,101151.23
2019-03-26T15:27:01.100Z,101148.61
2019-03-26T15:28:07.444Z,101150.03
2019-03-26T15:29:13.595Z,101146.50
2019-03-26T15:30:20.015Z,101150.45
2019-03-26T15:31:26.516Z,101148.28
2019-03-26T15:32:32.829Z,101156.13
2019-03-26T15:33:38.990Z,101146.50
2019-03-26T15:34:45.422Z,101142.13
2019-03-26T15:35:51.675Z,101147.05
2019-03-26T15:36:57.969Z,101156.00
2019-03-26T15:38:05.684Z,101155.64
2019-03-26T15:39:12.006Z,101154.85
2019-03-26T15:40:18.614Z,101154.91
2019-03-26T15:41:25.332Z,101157.48
2019-03-26T15:42:31.615Z,101161.38
2019-03-26T15:43:38.039Z,101159.09
2019-03-26T15:44:45.611Z,101155.94
2019-03-26T15:45:53.851Z,101168.10
2019-03-26T15:47:00.102Z,101165.41
2019-03-26T15:48:07.930Z,101166.25
2019-03-26T15:49:17.933Z,101161.77
2019-03-26T15:50:39.562Z,101176.22
2019-03-26T15:51:47.470Z,101181.86
2019-03-26T15:52:53.823Z,101177.00
2019-03-26T15:54:00.210Z,101180.48
2019-03-26T15:55:08.178Z,101184.79
2019-03-26T15:56:14.454Z,101184.25
2019-03-26T15:57:20.743Z,101189.45
2019-03-26T15:58:26.958Z,101186.75
2019-03-26T15:59:33.291Z,101176.59
2019-03-26T16:00:40.415Z,101177.44
2019-03-26T16:01:46.732Z,101178.73
2019-03-26T16:02:52.940Z,101187.10
2019-03-26T16:03:59.470Z,101190.58
2019-03-26T16:05:07.588Z,101195.85
2019-03-26T16:06:27.559Z,101197.16
2019-03-26T16:07:33.902Z,101200.67
2019-03-26T16:08:40.216Z,101207.25
2019-03-26T16:09:48.464Z,101211.14
2019-03-26T16:10:56.469Z,101212.83
2019-03-26T16:12:02.909Z,101208.41
2019-03-26T16:13:09.362Z,101218.55
2019-03-26T16:14:15.824Z,101215.03
2019-03-26T16:15:22.263Z,101225.92
2019-03-26T16:16:28.576Z,101215.77
2019-03-26T16:17:34.952Z,101243.38
2019-03-26T16:18:41.136Z,101253.76
2019-03-26T16:19:49.104Z,101245.32
2019-03-26T16:20:56.253Z,101249.02
2019-03-26T16:22:02.475Z,101254.03
2019-03-26T16:23:08.667Z,101256.92
2019-03-26T16:24:14.889Z,101260.66
2019-03-26T16:25:23.175Z,101268.34
2019-03-26T16:26:29.548Z,101269.05
2019-03-26T16:27:35.735Z,101274.48
2019-03-26T16:28:42.135Z,101272.49
2019-03-26T16:29:49.054Z,101273.53
2019-03-26T16:30:55.285Z,101277.23
2019-03-26T16:32:02.804Z,101276.62
2019-03-26T16:33:09.168Z,101273.87
2019-03-26T16:34:15.498Z,101284.68
2019-03-26T16:35:23.095Z,101288.45
2019-03-26T16:36:29.526Z,101285.34
2019-03-26T16:37:35.929Z,101286.51
2019-03-26T16:38:42.250Z,101290.71
2019-03-26T16:39:48.785Z,101292.27
2019-03-26T16:40:55.363Z,101296.08
2019-03-26T16:42:01.719Z,101313.88
2019-03-26T16:43:09.852Z,101314.62
2019-03-26T16:44:22.160Z,101316.73
2019-03-26T16:45:28.465Z,101326.33
2019-03-26T16:46:36.418Z,101323.64
2019-03-26T16:47:42.837Z,101335.30
2019-03-26T16:48:49.271Z,101327.23
2019-03-26T16:49:55.727Z,101330.18
2019-03-26T16:51:06.686Z,101335.71
2019-03-26T16:52:13.793Z,101343.16
2019-03-26T16:53:20.176Z,101344.03
2019-03-26T16:54:26.627Z,101348.25
2019-03-26T16:55:33.186Z,101348.16
2019-03-26T16:56:39.861Z,101354.20
2019-03-26T16:57:46.451Z,101359.86
2019-03-26T16:58:56.385Z,101353.72
2019-03-26T17:00:05.247Z,101350.09
2019-03-26T17:01:15.035Z,101357.84
2019-03-26T17:02:21.761Z,101355.91
2019-03-26T17:03:31.604Z,101362.40
2019-03-26T17:04:47.107Z,101369.27
2019-03-26T17:05:54.064Z,101367.86
2019-03-26T17:07:00.968Z,101373.34
2019-03-26T17:08:15.547Z,101372.37
2019-03-26T17:09:24.840Z,101376.21
2019-03-26T17:10:43.481Z,101380.04
2019-03-26T17:12:02.639Z,101375.08
2019-03-26T17:13:08.153Z,101379.28
2019-03-26T17:14:15.334Z,101368.48
2019-03-26T17:15:24.465Z,101384.52
2019-03-26T17:16:31.553Z,101371.80
2019-03-26T17:17:38.245Z,101376.86
2019-03-26T17:18:44.741Z,101382.44
2019-03-26T17:19:51.213Z,101383.64
2019-03-26T17:20:57.920Z,101379.46
2019-03-26T17:22:04.657Z,101383.28
2019-03-26T17:23:12.592Z,101385.31
2019-03-26T17:24:19.479Z,101383.34
2019-03-26T17:25:26.070Z,101377.47
2019-03-26T17:26:32.937Z,101389.97
2019-03-26T17:27:47.063Z,101394.64
2019-03-26T17:28:54.311Z,101394.53
2019-03-26T17:30:01.199Z,101394.88
2019-03-26T17:31:08.000Z,101400.89
2019-03-26T17:32:14.885Z,101396.89
2019-03-26T17:34:08.847Z,101400.30
2019-03-26T17:34:39.228Z,101405.83
2019-03-26T17:35:48.629Z,101405.27
2019-03-26T17:36:58.167Z,101404.59
2019-03-26T17:38:11.025Z,101413.23
2019-03-26T17:43:28.649Z,101421.11
2019-03-26T17:44:35.115Z,101422.59
2019-03-26T17:45:41.517Z,101426.41
2019-03-26T17:48:13.087Z,101428.86
2019-03-26T17:49:19.737Z,101422.49
2019-03-26T17:50:26.178Z,101432.88
2019-03-26T17:51:32.674Z,101438.89
2019-03-26T17:52:39.081Z,101440.94
2019-03-26T17:53:45.566Z,101439.10
2019-03-26T17:54:52.169Z,101443.36
2019-03-26T17:55:58.873Z,101447.65
2019-03-26T17:57:06.787Z,101444.95
2019-03-26T17:58:13.228Z,101446.67
2019-03-26T17:59:20.694Z,101448.76
2019-03-26T18:00:44.271Z,101455.22
2019-03-26T18:01:54.355Z,101452.97
2019-03-26T18:02:59.253Z,101449.86
2019-03-26T18:04:05.656Z,101458.00
2019-03-26T18:05:29.581Z,101455.30
2019-03-26T18:06:36.099Z,101459.02
2019-03-26T18:07:42.739Z,101461.02
2019-03-26T18:08:50.265Z,101463.55
2019-03-26T18:09:57.717Z,101465.14
2019-03-26T18:11:04.677Z,101472.86
2019-03-26T18:12:11.069Z,101476.08
2019-03-26T18:13:17.491Z,101478.66
2019-03-26T18:14:23.922Z,101478.03
2019-03-26T18:15:30.481Z,101477.95
2019-03-26T18:16:36.836Z,101476.02
2019-03-26T18:17:43.238Z,101488.06
2019-03-26T18:18:49.785Z,101484.06
2019-03-26T18:19:56.259Z,101483.03
2019-03-26T18:21:02.681Z,101488.32
2019-03-26T18:22:09.325Z,101492.97
2019-03-26T18:23:15.721Z,101502.31
2019-03-26T18:24:22.469Z,101501.22
2019-03-26T18:25:28.891Z,101503.26
2019-03-26T18:26:35.489Z,101503.62
2019-03-26T18:27:41.784Z,101514.39
2019-03-26T18:28:48.353Z,101512.59
2019-03-26T18:29:54.723Z,101512.86
2019-03-26T18:31:02.681Z,101513.62
2019-03-26T18:32:09.028Z,101517.73
2019-03-26T18:33:15.485Z,101518.13
2019-03-26T18:34:21.980Z,101530.64
2019-03-26T18:35:29.946Z,101522.01
2019-03-26T18:36:36.394Z,101526.28
2019-03-26T18:37:42.841Z,101530.52
2019-03-26T18:38:49.671Z,101537.31
2019-03-26T18:39:55.994Z,101536.41
2019-03-26T18:41:02.353Z,101535.91
2019-03-26T18:42:11.093Z,101535.52
2019-03-26T18:43:18.056Z,101541.40
2019-03-26T18:44:26.753Z,101543.52
2019-03-26T18:45:33.867Z,101550.62
2019-03-26T18:46:40.321Z,101551.53
2019-03-26T18:47:46.659Z,101551.13
2019-03-26T18:48:54.345Z,101558.32
2019-03-26T18:50:00.707Z,101559.71
2019-03-26T18:51:09.453Z,101560.88
2019-03-26T18:52:16.743Z,101562.90
2019-03-26T18:53:24.565Z,101566.91
2019-03-26T18:54:30.955Z,101562.58
2019-03-26T18:55:37.560Z,101569.02
2019-03-26T18:56:45.307Z,101575.23
2019-03-26T18:57:51.940Z,101575.23
2019-03-26T18:58:59.553Z,101576.45
2019-03-26T19:00:12.905Z,101582.56
2019-03-26T19:01:20.859Z,101581.34
2019-03-26T19:02:27.308Z,101585.17
2019-03-26T19:03:33.579Z,101583.78
2019-03-26T19:04:40.107Z,101583.87
2019-03-26T19:05:46.595Z,101590.08
2019-03-26T19:06:52.926Z,101593.23
2019-03-26T19:08:00.310Z,101595.59
2019-03-26T19:09:07.612Z,101593.47
2019-03-26T19:10:26.828Z,101598.84
2019-03-26T19:11:34.799Z,101597.27
2019-03-26T19:12:42.217Z,101601.02
2019-03-26T19:13:48.622Z,101607.55
2019-03-26T19:14:54.899Z,101606.73
2019-03-26T19:16:01.272Z,101613.26
2019-03-26T19:17:09.008Z,101612.45
2019-03-26T19:18:17.483Z,101619.47
2019-03-26T19:19:25.220Z,101617.18
2019-03-26T19:20:31.671Z,101620.28
2019-03-26T19:21:38.369Z,101616.86
2019-03-26T19:22:44.976Z,101621.97
2019-03-26T19:24:03.522Z,101619.76
2019-03-26T19:25:00.793Z,101626.78
2019-03-26T19:26:08.207Z,101627.33
2019-03-26T19:27:14.468Z,101626.11
2019-03-26T19:28:20.875Z,101619.67
2019-03-26T19:29:27.116Z,101620.63
2019-03-26T19:30:33.518Z,101628.05
2019-03-26T19:31:39.827Z,101628.95
2019-03-26T19:32:47.698Z,101634.59
2019-03-26T19:33:55.194Z,101627.06
2019-03-26T19:35:01.594Z,101632.79
2019-03-26T19:36:08.115Z,101635.34
2019-03-26T19:37:14.426Z,101634.13
2019-03-26T19:38:20.769Z,101635.17
2019-03-26T19:39:27.198Z,101638.67
2019-03-26T19:40:34.630Z,101646.11
2019-03-26T19:41:42.335Z,101648.22
2019-03-26T19:42:48.633Z,101645.56
2019-03-26T19:43:55.005Z,101646.69
2019-03-26T19:45:01.327Z,101648.66
2019-03-26T19:46:07.768Z,101645.99
2019-03-26T19:47:16.497Z,101651.22
2019-03-26T19:48:22.871Z,101652.84
2019-03-26T19:49:29.188Z,101657.41
2019-03-26T19:50:35.624Z,101663.39
2019-03-26T19:51:43.435Z,101658.17
2019-03-26T19:52:50.857Z,101664.11
2019-03-26T19:53:57.321Z,101664.92
2019-03-26T19:55:06.902Z,101663.72
2019-03-26T19:56:14.529Z,101665.69
2019-03-26T19:57:25.924Z,101668.70
2019-03-26T19:58:57.252Z,101673.27
2019-03-26T20:00:28.483Z,101667.40
2019-03-26T20:01:47.036Z,101671.22
2019-03-26T20:02:53.469Z,101673.52
2019-03-26T20:04:08.370Z,101679.55
2019-03-26T20:05:14.770Z,101677.10
2019-03-26T20:06:21.826Z,101682.67
2019-03-26T20:07:28.794Z,101683.47
2019-03-26T20:08:35.061Z,101687.15
2019-03-26T20:09:42.327Z,101690.81
2019-03-26T20:10:48.760Z,101686.19
2019-03-26T20:11:55.232Z,101691.97
2019-03-26T20:13:02.994Z,101690.33
2019-03-26T20:14:09.319Z,101698.25
2019-03-26T20:15:16.420Z,101692.62
2019-03-26T20:16:27.095Z,101702.88
2019-03-26T20:17:32.005Z,101705.63
2019-03-26T20:18:38.338Z,101706.62
2019-03-26T20:19:45.727Z,101709.07
2019-03-26T20:20:52.796Z,101709.28
2019-03-26T20:21:59.168Z,101708.07
2019-03-26T20:23:05.488Z,101712.13
2019-03-26T20:24:11.812Z,101713.98
2019-03-26T20:25:19.824Z,101712.42
2019-03-26T20:26:28.776Z,101718.71
2019-03-26T20:27:35.103Z,101717.62
2019-03-26T20:28:43.369Z,101727.31
2019-03-26T20:29:51.162Z,101729.83
2019-03-26T20:30:57.465Z,101734.53
2019-03-26T20:32:03.796Z,101738.69
2019-03-26T20:33:10.170Z,101734.67
2019-03-26T20:34:17.988Z,101735.81
2019-03-26T20:35:24.946Z,101738.82
2019-03-26T20:36:31.323Z,101745.27
2019-03-26T20:37:37.617Z,101745.08
2019-03-26T20:38:43.854Z,101744.81
2019-03-26T20:51:19.532Z,101748.50
2019-03-26T20:52:25.821Z,101743.86
2019-03-26T20:53:32.106Z,101750.67
2019-03-26T20:54:40.689Z,101750.10
2019-03-26T20:55:54.230Z,101748.92
2019-03-26T20:56:54.972Z,101746.15
2019-03-26T20:58:01.232Z,101755.66
2019-03-26T20:59:08.585Z,101751.95
2019-03-26T21:00:18.173Z,101756.91
2019-03-26T21:01:24.869Z,101752.80
2019-03-26T21:02:31.204Z,101763.15
2019-03-26T21:03:37.672Z,101761.41
2019-03-26T21:04:44.491Z,101760.61
2019-03-26T21:05:51.332Z,101759.14
2019-03-26T21:07:00.385Z,101765.75
2019-03-26T21:08:06.999Z,101762.71
2019-03-26T21:09:13.280Z,101770.95
2019-03-26T21:10:20.741Z,101768.64
2019-03-26T21:11:27.093Z,101770.95
2019-03-26T21:12:33.427Z,101773.13
2019-03-26T21:13:50.194Z,101769.33
2019-03-26T21:14:47.653Z,101771.12
2019-03-26T21:15:57.415Z,101776.34
2019-03-26T21:17:01.822Z,101776.23
2019-03-26T21:18:08.119Z,101776.23
2019-03-26T21:19:15.439Z,101778.33
2019-03-26T21:20:21.634Z,101779.64
2019-03-26T21:21:27.983Z,101781.77
2019-03-26T21:22:36.733Z,101786.88
2019-03-26T21:23:43.051Z,101791.57
2019-03-26T21:24:49.464Z,101786.88
2019-03-26T21:25:55.730Z,101785.57
2019-03-26T21:27:01.998Z,101793.08
2019-03-26T21:28:08.331Z,101796.48
2019-03-26T21:29:14.589Z,101788.57
2019-03-26T21:30:20.868Z,101795.08
2019-03-26T21:31:27.245Z,101790.60
2019-03-26T21:32:34.596Z,101800.11
2019-03-26T21:33:41.033Z,101791.80
2019-03-26T21:34:48.540Z,101798.91
2019-03-26T21:35:55.079Z,101798.70
2019-03-26T21:37:01.540Z,101798.63
2019-03-26T21:38:07.539Z,101799.25
2019-03-26T21:39:14.104Z,101799.94
2019-03-26T21:40:20.467Z,101797.95
2019-03-26T21:41:27.343Z,101798.58
2019-03-26T21:42:33.561Z,101800.17
2019-03-26T21:43:39.601Z,101803.89
2019-03-26T21:44:45.867Z,101810.51
2019-03-26T21:45:52.046Z,101807.30
2019-03-26T21:46:58.375Z,101808.80
2019-03-26T21:48:07.628Z,101809.39
2019-03-26T21:49:13.706Z,101819.97
2019-03-26T21:50:19.823Z,101818.09
2019-03-26T21:51:26.307Z,101810.80
2019-03-26T21:52:32.543Z,101819.58
2019-03-26T21:53:38.384Z,101824.99
2019-03-26T21:54:44.339Z,101825.39
2019-03-26T21:55:51.316Z,101824.89
2019-03-26T21:56:57.366Z,101825.06
2019-03-26T21:58:03.269Z,101822.67
2019-03-26T21:59:09.136Z,101819.57
2019-03-26T22:00:15.166Z,101822.57
2019-03-26T22:01:21.245Z,101826.47
2019-03-26T22:02:27.271Z,101822.06
2019-03-26T22:03:34.799Z,101820.77
2019-03-26T22:04:40.492Z,101820.87
2019-03-26T22:05:47.913Z,101820.47
2019-03-26T22:06:53.923Z,101826.14
2019-03-26T22:07:59.815Z,101830.95
2019-03-26T22:09:07.629Z,101828.75
2019-03-26T22:10:14.953Z,101828.35
2019-03-26T22:11:20.692Z,101834.46
2019-03-26T22:12:26.427Z,101829.44
2019-03-26T22:13:32.147Z,101835.14
2019-03-26T22:14:37.893Z,101836.38
2019-03-26T22:15:43.602Z,101839.38
2019-03-26T22:16:49.325Z,101845.48
2019-03-26T22:17:55.188Z,101850.26
2019-03-26T22:19:01.052Z,101847.98
2019-03-26T22:20:09.507Z,101846.50
2019-03-26T22:21:15.386Z,101855.61
2019-03-26T22:22:21.651Z,101852.39
2019-03-26T22:23:27.637Z,101849.39
2019-03-26T22:24:33.386Z,101857.59
2019-03-26T22:25:39.237Z,101857.09
2019-03-26T22:26:45.133Z,101859.30
2019-03-26T22:27:50.984Z,101859.98
2019-03-26T22:28:56.743Z,101861.28
2019-03-26T22:30:02.559Z,101861.97
2019-03-26T22:31:09.429Z,101859.30
2019-03-26T22:32:15.254Z,101861.17
2019-03-26T22:33:20.951Z,101856.58
2019-03-26T22:34:26.815Z,101855.75
2019-03-26T22:35:34.757Z,101853.47
2019-03-26T22:36:40.488Z,101852.46
2019-03-26T22:37:46.186Z,101851.66
2019-03-26T22:38:51.946Z,101858.97
2019-03-26T22:39:57.750Z,101856.30
2019-03-26T22:41:03.536Z,101863.70
2019-03-26T22:42:09.366Z,101861.58
2019-03-26T22:43:15.119Z,101863.09
2019-03-26T22:44:30.842Z,101862.98
2019-03-26T22:45:28.355Z,101863.88
2019-03-26T22:46:36.321Z,101862.98
2019-03-26T22:47:42.025Z,101870.69
2019-03-26T22:48:47.799Z,101878.02
2019-03-26T22:49:53.537Z,101871.52
2019-03-26T22:50:59.542Z,101867.61
2019-03-26T22:52:05.335Z,101866.20
2019-03-26T22:53:11.137Z,101874.91
2019-03-26T22:54:18.496Z,101871.22
2019-03-26T22:55:24.957Z,101875.13
2019-03-26T22:56:30.805Z,101880.41
2019-03-26T22:57:36.844Z,101877.41
2019-03-26T22:58:42.655Z,101878.20
2019-03-26T22:59:48.487Z,101879.11
2019-03-26T23:00:55.369Z,101884.81
2019-03-26T23:02:02.662Z,101881.31
2019-03-26T23:03:09.537Z,101887.92
2019-03-26T23:04:15.456Z,101884.42
2019-03-26T23:05:21.333Z,101886.12
2019-03-26T23:06:27.795Z,101890.82
2019-03-26T23:07:33.533Z,101882.54
2019-03-26T23:08:39.312Z,101881.23
2019-03-26T23:09:45.095Z,101883.84
2019-03-26T23:10:50.965Z,101885.22
2019-03-26T23:11:57.889Z,101887.02
2019-03-26T23:13:04.699Z,101888.62
2019-03-26T23:14:11.522Z,101890.34
2019-03-26T23:15:21.771Z,101886.45
2019-03-26T23:16:27.515Z,101893.42
2019-03-26T23:17:33.298Z,101900.33
2019-03-26T23:18:39.081Z,101905.06
2019-03-26T23:19:44.907Z,101902.75
2019-03-26T23:20:50.653Z,101905.75
2019-03-26T23:21:57.498Z,101906.55
2019-03-26T23:23:03.356Z,101902.24
2019-03-26T23:24:09.139Z,101902.35
2019-03-26T23:25:15.553Z,101896.34
2019-03-26T23:26:21.409Z,101909.26
2019-03-26T23:27:27.516Z,101908.75
2019-03-26T23:28:33.434Z,101901.34
2019-03-26T23:29:39.282Z,101904.37
2019-03-26T23:30:45.138Z,101902.45
2019-03-26T23:31:50.927Z,101902.45
2019-03-26T23:32:56.757Z,101899.34
2019-03-26T23:34:04.643Z,101903.69
2019-03-26T23:35:10.531Z,101904.98
2019-03-26T23:36:16.292Z,101903.17
2019-03-26T23:37:21.983Z,101916.19
2019-03-26T23:38:28.773Z,101909.17
2019-03-26T23:39:34.573Z,101912.17
2019-03-26T23:40:40.268Z,101908.38
2019-03-26T23:41:45.991Z,101914.97
2019-03-26T23:42:51.723Z,101911.89
2019-03-26T23:43:57.522Z,101915.80
2019-03-26T23:45:03.261Z,101913.19
2019-03-26T23:46:09.079Z,101914.78
2019-03-26T23:47:14.795Z,101911.27
2019-03-26T23:48:20.793Z,101912.06
2019-03-26T23:49:26.483Z,101911.59
2019-03-26T23:50:32.335Z,101915.10
2019-03-26T23:51:39.127Z,101913.30
2019-03-26T23:52:44.950Z,101917.20
2019-03-26T23:53:50.686Z,101916.80
2019-03-26T23:54:56.493Z,101917.20
2019-03-26T23:56:02.263Z,101918.89
2019-03-26T23:57:08.012Z,101912.28
2019-03-26T23:58:13.925Z,101919.11
2019-03-26T23:59:19.797Z,101912.20
